sensor_id;sensor_type;location;lat;lon;timestamp;P1;durP1;ratioP1;P2;durP2;ratioP2
12956;SDS011;6543;48.836;10.092;2022-08-11T00:01:11;3.90;;;1.70;;
12956;SDS011;6543;48.836;10.092;2022-08-11T00:03:42;3.47;;;1.83;;
12956;SDS011;6543;48.836;10.092;2022-08-11T00:06:11;5.23;;;2.10;;
12956;SDS011;6543;48.836;10.092;2022-08-11T00:08:40;4.30;;;2.40;;
12956;SDS011;6543;48.836;10.092;2022-08-11T00:11:09;5.13;;;2.20;;
12956;SDS011;6543;48.836;10.092;2022-08-11T00:13:38;1.87;;;1.77;;
12956;SDS011;6543;48.836;10.092;2022-08-11T00:16:10;5.80;;;2.27;;
12956;SDS011;6543;48.836;10.092;2022-08-11T00:18:39;2.93;;;1.80;;
12956;SDS011;6543;48.836;10.092;2022-08-11T00:21:10;3.60;;;2.00;;
12956;SDS011;6543;48.836;10.092;2022-08-11T00:23:40;2.77;;;1.93;;
12956;SDS011;6543;48.836;10.092;2022-08-11T00:26:09;2.47;;;2.20;;
12956;SDS011;6543;48.836;10.092;2022-08-11T00:28:37;2.23;;;1.83;;
12956;SDS011;6543;48.836;10.092;2022-08-11T00:31:05;4.53;;;1.97;;
12956;SDS011;6543;48.836;10.092;2022-08-11T00:33:35;5.23;;;1.80;;
12956;SDS011;6543;48.836;10.092;2022-08-11T00:36:05;4.00;;;2.23;;
12956;SDS011;6543;48.836;10.092;2022-08-11T00:38:35;4.07;;;2.03;;
12956;SDS011;6543;48.836;10.092;2022-08-11T00:41:08;7.87;;;1.97;;
12956;SDS011;6543;48.836;10.092;2022-08-11T00:46:58;2.27;;;1.83;;
12956;SDS011;6543;48.836;10.092;2022-08-11T00:49:37;1.70;;;1.60;;
12956;SDS011;6543;48.836;10.092;2022-08-11T00:52:16;3.83;;;2.60;;
12956;SDS011;6543;48.836;10.092;2022-08-11T00:54:59;1.93;;;1.73;;
12956;SDS011;6543;48.836;10.092;2022-08-11T00:58:09;4.57;;;2.00;;
12956;SDS011;6543;48.836;10.092;2022-08-11T01:01:04;4.70;;;1.80;;
12956;SDS011;6543;48.836;10.092;2022-08-11T01:06:50;4.23;;;1.80;;
12956;SDS011;6543;48.836;10.092;2022-08-11T01:09:51;1.80;;;1.57;;
12956;SDS011;6543;48.836;10.092;2022-08-11T01:12:38;5.37;;;2.07;;
12956;SDS011;6543;48.836;10.092;2022-08-11T01:18:16;1.60;;;1.50;;
12956;SDS011;6543;48.836;10.092;2022-08-11T01:21:12;2.73;;;1.97;;
12956;SDS011;6543;48.836;10.092;2022-08-11T01:24:18;2.13;;;1.90;;
12956;SDS011;6543;48.836;10.092;2022-08-11T01:27:20;2.03;;;1.70;;
12956;SDS011;6543;48.836;10.092;2022-08-11T01:36:36;3.23;;;1.97;;
12956;SDS011;6543;48.836;10.092;2022-08-11T01:39:29;3.27;;;2.20;;
12956;SDS011;6543;48.836;10.092;2022-08-11T01:42:23;5.20;;;2.07;;
12956;SDS011;6543;48.836;10.092;2022-08-11T01:45:39;3.77;;;2.07;;
12956;SDS011;6543;48.836;10.092;2022-08-11T01:48:13;3.00;;;2.10;;
12956;SDS011;6543;48.836;10.092;2022-08-11T01:51:07;3.30;;;2.30;;
12956;SDS011;6543;48.836;10.092;2022-08-11T01:53:50;7.33;;;2.53;;
12956;SDS011;6543;48.836;10.092;2022-08-11T01:59:14;2.93;;;2.20;;
12956;SDS011;6543;48.836;10.092;2022-08-11T02:04:45;3.23;;;2.10;;
12956;SDS011;6543;48.836;10.092;2022-08-11T02:07:25;2.57;;;2.10;;
12956;SDS011;6543;48.836;10.092;2022-08-11T02:10:03;4.33;;;2.23;;
12956;SDS011;6543;48.836;10.092;2022-08-11T02:13:05;5.37;;;2.43;;
12956;SDS011;6543;48.836;10.092;2022-08-11T02:15:41;2.87;;;2.07;;
12956;SDS011;6543;48.836;10.092;2022-08-11T02:18:12;3.23;;;2.27;;
12956;SDS011;6543;48.836;10.092;2022-08-11T02:20:44;8.80;;;2.40;;
12956;SDS011;6543;48.836;10.092;2022-08-11T02:23:37;2.40;;;2.13;;
12956;SDS011;6543;48.836;10.092;2022-08-11T02:26:15;3.47;;;2.27;;
12956;SDS011;6543;48.836;10.092;2022-08-11T02:28:59;3.47;;;2.30;;
12956;SDS011;6543;48.836;10.092;2022-08-11T02:31:38;6.03;;;2.17;;
12956;SDS011;6543;48.836;10.092;2022-08-11T02:34:31;4.20;;;2.40;;
12956;SDS011;6543;48.836;10.092;2022-08-11T02:37:10;5.20;;;2.63;;
12956;SDS011;6543;48.836;10.092;2022-08-11T02:39:45;4.27;;;2.40;;
12956;SDS011;6543;48.836;10.092;2022-08-11T02:42:25;3.57;;;2.40;;
12956;SDS011;6543;48.836;10.092;2022-08-11T02:48:02;13.37;;;3.60;;
12956;SDS011;6543;48.836;10.092;2022-08-11T02:51:03;8.33;;;2.60;;
12956;SDS011;6543;48.836;10.092;2022-08-11T02:53:38;5.83;;;3.20;;
12956;SDS011;6543;48.836;10.092;2022-08-11T02:56:13;4.27;;;2.30;;
12956;SDS011;6543;48.836;10.092;2022-08-11T02:58:54;5.63;;;2.63;;
12956;SDS011;6543;48.836;10.092;2022-08-11T03:01:45;7.20;;;2.47;;
12956;SDS011;6543;48.836;10.092;2022-08-11T03:04:17;6.37;;;2.30;;
12956;SDS011;6543;48.836;10.092;2022-08-11T03:06:48;9.97;;;2.77;;
12956;SDS011;6543;48.836;10.092;2022-08-11T03:09:19;3.63;;;2.17;;
12956;SDS011;6543;48.836;10.092;2022-08-11T03:11:55;4.53;;;2.23;;
12956;SDS011;6543;48.836;10.092;2022-08-11T03:14:51;4.17;;;2.20;;
12956;SDS011;6543;48.836;10.092;2022-08-11T03:17:40;9.53;;;2.10;;
12956;SDS011;6543;48.836;10.092;2022-08-11T03:20:27;3.33;;;2.23;;
12956;SDS011;6543;48.836;10.092;2022-08-11T03:23:03;4.80;;;2.27;;
12956;SDS011;6543;48.836;10.092;2022-08-11T03:25:42;2.77;;;2.10;;
12956;SDS011;6543;48.836;10.092;2022-08-11T03:28:19;4.40;;;2.30;;
12956;SDS011;6543;48.836;10.092;2022-08-11T03:30:56;3.20;;;1.90;;
12956;SDS011;6543;48.836;10.092;2022-08-11T03:33:37;7.23;;;2.20;;
12956;SDS011;6543;48.836;10.092;2022-08-11T03:36:34;4.77;;;2.60;;
12956;SDS011;6543;48.836;10.092;2022-08-11T03:39:28;2.37;;;2.10;;
12956;SDS011;6543;48.836;10.092;2022-08-11T03:42:15;4.70;;;2.67;;
12956;SDS011;6543;48.836;10.092;2022-08-11T03:44:57;2.77;;;2.23;;
12956;SDS011;6543;48.836;10.092;2022-08-11T03:47:47;5.40;;;2.40;;
12956;SDS011;6543;48.836;10.092;2022-08-11T03:50:28;4.53;;;2.43;;
12956;SDS011;6543;48.836;10.092;2022-08-11T03:53:13;3.73;;;2.27;;
12956;SDS011;6543;48.836;10.092;2022-08-11T03:56:05;7.07;;;2.43;;
12956;SDS011;6543;48.836;10.092;2022-08-11T04:01:57;4.47;;;2.30;;
12956;SDS011;6543;48.836;10.092;2022-08-11T04:13:58;5.10;;;2.70;;
12956;SDS011;6543;48.836;10.092;2022-08-11T04:16:57;6.30;;;2.30;;
12956;SDS011;6543;48.836;10.092;2022-08-11T04:19:52;5.33;;;2.37;;
12956;SDS011;6543;48.836;10.092;2022-08-11T04:22:52;3.43;;;2.33;;
12956;SDS011;6543;48.836;10.092;2022-08-11T04:25:47;3.90;;;2.70;;
12956;SDS011;6543;48.836;10.092;2022-08-11T04:28:41;2.67;;;2.47;;
12956;SDS011;6543;48.836;10.092;2022-08-11T04:31:23;4.37;;;2.83;;
12956;SDS011;6543;48.836;10.092;2022-08-11T04:40:27;8.17;;;2.60;;
12956;SDS011;6543;48.836;10.092;2022-08-11T04:49:21;6.30;;;2.70;;
12956;SDS011;6543;48.836;10.092;2022-08-11T04:55:41;6.30;;;3.17;;
12956;SDS011;6543;48.836;10.092;2022-08-11T04:58:46;7.87;;;3.03;;
12956;SDS011;6543;48.836;10.092;2022-08-11T05:01:41;8.67;;;3.27;;
12956;SDS011;6543;48.836;10.092;2022-08-11T05:04:26;2.83;;;2.60;;
12956;SDS011;6543;48.836;10.092;2022-08-11T05:07:50;6.60;;;2.90;;
12956;SDS011;6543;48.836;10.092;2022-08-11T05:13:33;4.47;;;3.27;;
12956;SDS011;6543;48.836;10.092;2022-08-11T05:16:26;7.93;;;3.10;;
12956;SDS011;6543;48.836;10.092;2022-08-11T05:19:14;9.77;;;3.30;;
12956;SDS011;6543;48.836;10.092;2022-08-11T05:22:00;9.97;;;2.97;;
12956;SDS011;6543;48.836;10.092;2022-08-11T05:24:49;4.97;;;2.60;;
12956;SDS011;6543;48.836;10.092;2022-08-11T05:27:44;5.67;;;2.60;;
12956;SDS011;6543;48.836;10.092;2022-08-11T05:30:34;8.00;;;2.00;;
12956;SDS011;6543;48.836;10.092;2022-08-11T05:33:24;5.07;;;2.57;;
12956;SDS011;6543;48.836;10.092;2022-08-11T05:36:17;5.43;;;2.50;;
12956;SDS011;6543;48.836;10.092;2022-08-11T05:38:55;5.37;;;2.87;;
12956;SDS011;6543;48.836;10.092;2022-08-11T05:41:42;2.70;;;2.40;;
12956;SDS011;6543;48.836;10.092;2022-08-11T05:44:26;4.57;;;2.23;;
12956;SDS011;6543;48.836;10.092;2022-08-11T05:47:20;4.63;;;2.40;;
12956;SDS011;6543;48.836;10.092;2022-08-11T05:50:09;5.50;;;2.70;;
12956;SDS011;6543;48.836;10.092;2022-08-11T05:52:55;4.73;;;2.40;;
12956;SDS011;6543;48.836;10.092;2022-08-11T05:55:40;4.77;;;2.57;;
12956;SDS011;6543;48.836;10.092;2022-08-11T05:58:30;6.80;;;2.45;;
12956;SDS011;6543;48.836;10.092;2022-08-11T06:00:58;6.07;;;2.40;;
12956;SDS011;6543;48.836;10.092;2022-08-11T06:03:27;8.00;;;2.27;;
12956;SDS011;6543;48.836;10.092;2022-08-11T06:05:57;4.78;;;1.95;;
12956;SDS011;6543;48.836;10.092;2022-08-11T06:08:29;6.27;;;2.60;;
12956;SDS011;6543;48.836;10.092;2022-08-11T06:11:00;5.13;;;2.55;;
12956;SDS011;6543;48.836;10.092;2022-08-11T06:13:30;5.28;;;2.60;;
12956;SDS011;6543;48.836;10.092;2022-08-11T06:15:59;5.07;;;2.42;;
12956;SDS011;6543;48.836;10.092;2022-08-11T06:18:26;13.98;;;2.60;;
12956;SDS011;6543;48.836;10.092;2022-08-11T06:20:55;4.70;;;2.60;;
12956;SDS011;6543;48.836;10.092;2022-08-11T06:23:29;4.57;;;2.53;;
12956;SDS011;6543;48.836;10.092;2022-08-11T06:25:57;2.88;;;2.10;;
12956;SDS011;6543;48.836;10.092;2022-08-11T06:28:30;2.72;;;2.50;;
12956;SDS011;6543;48.836;10.092;2022-08-11T06:31:00;2.08;;;1.80;;
12956;SDS011;6543;48.836;10.092;2022-08-11T06:33:36;6.43;;;2.28;;
12956;SDS011;6543;48.836;10.092;2022-08-11T06:36:22;2.55;;;2.25;;
12956;SDS011;6543;48.836;10.092;2022-08-11T06:38:58;4.70;;;2.28;;
12956;SDS011;6543;48.836;10.092;2022-08-11T06:41:32;7.07;;;2.40;;
12956;SDS011;6543;48.836;10.092;2022-08-11T06:44:13;2.70;;;2.22;;
12956;SDS011;6543;48.836;10.092;2022-08-11T06:46:45;3.33;;;2.42;;
12956;SDS011;6543;48.836;10.092;2022-08-11T06:49:15;7.35;;;1.98;;
12956;SDS011;6543;48.836;10.092;2022-08-11T06:52:03;5.60;;;2.22;;
12956;SDS011;6543;48.836;10.092;2022-08-11T06:54:32;3.13;;;2.10;;
12956;SDS011;6543;48.836;10.092;2022-08-11T06:57:01;2.63;;;1.92;;
12956;SDS011;6543;48.836;10.092;2022-08-11T06:59:47;4.50;;;2.30;;
12956;SDS011;6543;48.836;10.092;2022-08-11T07:02:33;5.15;;;2.63;;
12956;SDS011;6543;48.836;10.092;2022-08-11T07:05:09;5.63;;;2.30;;
12956;SDS011;6543;48.836;10.092;2022-08-11T07:11:14;5.30;;;2.28;;
12956;SDS011;6543;48.836;10.092;2022-08-11T07:14:10;7.90;;;2.17;;
12956;SDS011;6543;48.836;10.092;2022-08-11T07:16:58;2.72;;;2.22;;
12956;SDS011;6543;48.836;10.092;2022-08-11T07:19:27;2.58;;;1.90;;
12956;SDS011;6543;48.836;10.092;2022-08-11T07:22:12;3.15;;;2.20;;
12956;SDS011;6543;48.836;10.092;2022-08-11T07:24:59;4.60;;;2.10;;
12956;SDS011;6543;48.836;10.092;2022-08-11T07:27:46;5.18;;;1.98;;
12956;SDS011;6543;48.836;10.092;2022-08-11T07:30:39;3.13;;;2.22;;
12956;SDS011;6543;48.836;10.092;2022-08-11T07:33:07;9.90;;;2.13;;
12956;SDS011;6543;48.836;10.092;2022-08-11T07:35:37;3.83;;;2.42;;
12956;SDS011;6543;48.836;10.092;2022-08-11T07:38:11;2.10;;;1.88;;
12956;SDS011;6543;48.836;10.092;2022-08-11T07:40:47;3.92;;;2.20;;
12956;SDS011;6543;48.836;10.092;2022-08-11T07:43:15;4.75;;;1.83;;
12956;SDS011;6543;48.836;10.092;2022-08-11T07:45:43;3.40;;;2.60;;
12956;SDS011;6543;48.836;10.092;2022-08-11T07:48:29;5.15;;;2.17;;
12956;SDS011;6543;48.836;10.092;2022-08-11T07:51:15;14.65;;;2.70;;
12956;SDS011;6543;48.836;10.092;2022-08-11T07:54:02;3.90;;;2.20;;
12956;SDS011;6543;48.836;10.092;2022-08-11T07:56:31;2.67;;;2.00;;
12956;SDS011;6543;48.836;10.092;2022-08-11T07:59:00;3.80;;;2.08;;
12956;SDS011;6543;48.836;10.092;2022-08-11T08:01:45;4.32;;;2.15;;
12956;SDS011;6543;48.836;10.092;2022-08-11T08:04:30;3.58;;;2.20;;
12956;SDS011;6543;48.836;10.092;2022-08-11T08:07:15;8.23;;;2.38;;
12956;SDS011;6543;48.836;10.092;2022-08-11T08:10:04;3.10;;;2.58;;
12956;SDS011;6543;48.836;10.092;2022-08-11T08:12:50;6.28;;;2.30;;
12956;SDS011;6543;48.836;10.092;2022-08-11T08:15:37;5.20;;;2.00;;
12956;SDS011;6543;48.836;10.092;2022-08-11T08:18:22;10.95;;;2.25;;
12956;SDS011;6543;48.836;10.092;2022-08-11T08:20:50;4.38;;;2.65;;
12956;SDS011;6543;48.836;10.092;2022-08-11T08:23:19;4.72;;;2.35;;
12956;SDS011;6543;48.836;10.092;2022-08-11T08:25:57;4.53;;;1.98;;
12956;SDS011;6543;48.836;10.092;2022-08-11T08:28:25;4.85;;;2.17;;
12956;SDS011;6543;48.836;10.092;2022-08-11T08:30:55;7.28;;;2.40;;
12956;SDS011;6543;48.836;10.092;2022-08-11T08:33:23;13.07;;;2.60;;
12956;SDS011;6543;48.836;10.092;2022-08-11T08:35:55;4.38;;;2.17;;
12956;SDS011;6543;48.836;10.092;2022-08-11T08:38:36;3.13;;;2.58;;
12956;SDS011;6543;48.836;10.092;2022-08-11T08:41:04;5.38;;;1.95;;
12956;SDS011;6543;48.836;10.092;2022-08-11T08:43:32;5.82;;;2.10;;
12956;SDS011;6543;48.836;10.092;2022-08-11T08:46:02;2.85;;;1.95;;
12956;SDS011;6543;48.836;10.092;2022-08-11T08:48:34;7.40;;;1.98;;
12956;SDS011;6543;48.836;10.092;2022-08-11T08:51:02;4.60;;;1.90;;
12956;SDS011;6543;48.836;10.092;2022-08-11T08:53:50;8.55;;;1.80;;
12956;SDS011;6543;48.836;10.092;2022-08-11T08:56:18;4.28;;;2.00;;
12956;SDS011;6543;48.836;10.092;2022-08-11T08:58:52;5.80;;;1.73;;
12956;SDS011;6543;48.836;10.092;2022-08-11T09:01:21;4.07;;;1.67;;
12956;SDS011;6543;48.836;10.092;2022-08-11T09:03:49;1.95;;;1.67;;
12956;SDS011;6543;48.836;10.092;2022-08-11T09:06:17;2.25;;;1.92;;
12956;SDS011;6543;48.836;10.092;2022-08-11T09:08:44;7.35;;;2.10;;
12956;SDS011;6543;48.836;10.092;2022-08-11T09:11:12;4.85;;;1.67;;
12956;SDS011;6543;48.836;10.092;2022-08-11T09:13:57;5.40;;;2.35;;
12956;SDS011;6543;48.836;10.092;2022-08-11T09:16:27;2.13;;;1.90;;
12956;SDS011;6543;48.836;10.092;2022-08-11T09:18:55;4.10;;;1.65;;
12956;SDS011;6543;48.836;10.092;2022-08-11T09:21:24;3.42;;;1.95;;
12956;SDS011;6543;48.836;10.092;2022-08-11T09:23:51;5.82;;;2.50;;
12956;SDS011;6543;48.836;10.092;2022-08-11T09:26:36;6.28;;;1.63;;
12956;SDS011;6543;48.836;10.092;2022-08-11T09:29:25;8.23;;;1.80;;
12956;SDS011;6543;48.836;10.092;2022-08-11T09:31:54;5.15;;;1.95;;
12956;SDS011;6543;48.836;10.092;2022-08-11T09:34:23;5.63;;;2.15;;
12956;SDS011;6543;48.836;10.092;2022-08-11T09:36:51;2.67;;;1.73;;
12956;SDS011;6543;48.836;10.092;2022-08-11T09:39:37;2.25;;;1.50;;
12956;SDS011;6543;48.836;10.092;2022-08-11T09:42:24;2.25;;;1.52;;
12956;SDS011;6543;48.836;10.092;2022-08-11T09:45:12;13.07;;;2.15;;
12956;SDS011;6543;48.836;10.092;2022-08-11T09:47:41;2.15;;;1.45;;
12956;SDS011;6543;48.836;10.092;2022-08-11T09:50:09;3.90;;;1.60;;
12956;SDS011;6543;48.836;10.092;2022-08-11T09:52:40;5.82;;;1.58;;
12956;SDS011;6543;48.836;10.092;2022-08-11T09:55:09;4.43;;;1.95;;
12956;SDS011;6543;48.836;10.092;2022-08-11T09:57:40;2.47;;;1.20;;
12956;SDS011;6543;48.836;10.092;2022-08-11T10:00:28;2.78;;;1.20;;
12956;SDS011;6543;48.836;10.092;2022-08-11T10:03:02;1.65;;;1.30;;
12956;SDS011;6543;48.836;10.092;2022-08-11T10:05:32;6.50;;;1.75;;
12956;SDS011;6543;48.836;10.092;2022-08-11T10:08:18;2.08;;;1.50;;
12956;SDS011;6543;48.836;10.092;2022-08-11T10:10:48;3.42;;;1.70;;
12956;SDS011;6543;48.836;10.092;2022-08-11T10:13:15;2.55;;;1.60;;
12956;SDS011;6543;48.836;10.092;2022-08-11T10:15:51;7.10;;;1.70;;
12956;SDS011;6543;48.836;10.092;2022-08-11T10:18:23;2.78;;;1.42;;
12956;SDS011;6543;48.836;10.092;2022-08-11T10:21:14;4.97;;;1.80;;
12956;SDS011;6543;48.836;10.092;2022-08-11T10:23:52;1.70;;;1.60;;
12956;SDS011;6543;48.836;10.092;2022-08-11T10:26:38;2.05;;;1.60;;
12956;SDS011;6543;48.836;10.092;2022-08-11T10:29:18;2.45;;;1.30;;
12956;SDS011;6543;48.836;10.092;2022-08-11T10:32:04;1.58;;;1.30;;
12956;SDS011;6543;48.836;10.092;2022-08-11T10:34:51;2.25;;;1.90;;
12956;SDS011;6543;48.836;10.092;2022-08-11T10:37:20;3.03;;;1.50;;
12956;SDS011;6543;48.836;10.092;2022-08-11T10:39:49;3.25;;;1.30;;
12956;SDS011;6543;48.836;10.092;2022-08-11T10:42:20;2.33;;;1.17;;
12956;SDS011;6543;48.836;10.092;2022-08-11T10:45:05;3.55;;;1.42;;
12956;SDS011;6543;48.836;10.092;2022-08-11T10:47:54;2.92;;;1.10;;
12956;SDS011;6543;48.836;10.092;2022-08-11T10:50:23;22.15;;;4.30;;
12956;SDS011;6543;48.836;10.092;2022-08-11T10:53:09;2.65;;;1.30;;
12956;SDS011;6543;48.836;10.092;2022-08-11T10:55:55;3.05;;;1.52;;
12956;SDS011;6543;48.836;10.092;2022-08-11T10:58:41;7.25;;;2.40;;
12956;SDS011;6543;48.836;10.092;2022-08-11T11:01:14;2.55;;;1.90;;
12956;SDS011;6543;48.836;10.092;2022-08-11T11:03:41;2.58;;;1.40;;
12956;SDS011;6543;48.836;10.092;2022-08-11T11:06:14;11.52;;;1.60;;
12956;SDS011;6543;48.836;10.092;2022-08-11T11:08:52;3.13;;;1.70;;
12956;SDS011;6543;48.836;10.092;2022-08-11T11:11:26;5.90;;;1.73;;
12956;SDS011;6543;48.836;10.092;2022-08-11T11:14:10;4.68;;;1.50;;
12956;SDS011;6543;48.836;10.092;2022-08-11T11:16:57;4.20;;;1.10;;
12956;SDS011;6543;48.836;10.092;2022-08-11T11:19:42;4.72;;;1.52;;
12956;SDS011;6543;48.836;10.092;2022-08-11T11:22:11;3.33;;;1.80;;
12956;SDS011;6543;48.836;10.092;2022-08-11T11:25:01;4.07;;;1.80;;
12956;SDS011;6543;48.836;10.092;2022-08-11T11:27:35;7.80;;;1.35;;
12956;SDS011;6543;48.836;10.092;2022-08-11T11:30:13;3.78;;;1.40;;
12956;SDS011;6543;48.836;10.092;2022-08-11T11:32:43;4.10;;;1.30;;
12956;SDS011;6543;48.836;10.092;2022-08-11T11:35:22;1.50;;;1.38;;
12956;SDS011;6543;48.836;10.092;2022-08-11T11:37:57;2.10;;;1.20;;
12956;SDS011;6543;48.836;10.092;2022-08-11T11:40:25;3.38;;;1.20;;
12956;SDS011;6543;48.836;10.092;2022-08-11T11:42:54;4.43;;;1.38;;
12956;SDS011;6543;48.836;10.092;2022-08-11T11:45:23;1.40;;;1.30;;
12956;SDS011;6543;48.836;10.092;2022-08-11T11:47:51;1.95;;;1.63;;
12956;SDS011;6543;48.836;10.092;2022-08-11T11:50:23;2.22;;;1.30;;
12956;SDS011;6543;48.836;10.092;2022-08-11T11:52:52;2.90;;;1.42;;
12956;SDS011;6543;48.836;10.092;2022-08-11T11:55:22;1.38;;;1.25;;
12956;SDS011;6543;48.836;10.092;2022-08-11T11:57:50;4.03;;;1.50;;
12956;SDS011;6543;48.836;10.092;2022-08-11T12:00:36;8.43;;;1.55;;
12956;SDS011;6543;48.836;10.092;2022-08-11T12:03:21;1.08;;;1.08;;
12956;SDS011;6543;48.836;10.092;2022-08-11T12:05:50;3.50;;;1.40;;
12956;SDS011;6543;48.836;10.092;2022-08-11T12:08:18;2.30;;;1.25;;
12956;SDS011;6543;48.836;10.092;2022-08-11T12:10:48;4.20;;;1.50;;
12956;SDS011;6543;48.836;10.092;2022-08-11T12:13:39;3.67;;;1.20;;
12956;SDS011;6543;48.836;10.092;2022-08-11T12:16:07;4.25;;;1.20;;
12956;SDS011;6543;48.836;10.092;2022-08-11T12:18:36;2.10;;;1.15;;
12956;SDS011;6543;48.836;10.092;2022-08-11T12:21:05;5.13;;;1.58;;
12956;SDS011;6543;48.836;10.092;2022-08-11T12:23:33;6.43;;;1.55;;
12956;SDS011;6543;48.836;10.092;2022-08-11T12:26:20;1.88;;;1.40;;
12956;SDS011;6543;48.836;10.092;2022-08-11T12:29:07;3.22;;;1.50;;
12956;SDS011;6543;48.836;10.092;2022-08-11T12:31:37;5.22;;;1.52;;
12956;SDS011;6543;48.836;10.092;2022-08-11T12:34:06;2.35;;;1.00;;
12956;SDS011;6543;48.836;10.092;2022-08-11T12:36:35;2.95;;;1.35;;
12956;SDS011;6543;48.836;10.092;2022-08-11T12:39:04;4.65;;;1.48;;
12956;SDS011;6543;48.836;10.092;2022-08-11T12:41:34;5.40;;;1.65;;
12956;SDS011;6543;48.836;10.092;2022-08-11T12:44:20;5.03;;;1.30;;
12956;SDS011;6543;48.836;10.092;2022-08-11T12:47:09;3.92;;;1.50;;
12956;SDS011;6543;48.836;10.092;2022-08-11T12:49:40;1.50;;;1.30;;
12956;SDS011;6543;48.836;10.092;2022-08-11T12:52:31;2.30;;;1.63;;
12956;SDS011;6543;48.836;10.092;2022-08-11T12:55:02;1.70;;;1.48;;
12956;SDS011;6543;48.836;10.092;2022-08-11T12:57:36;4.32;;;1.58;;
12956;SDS011;6543;48.836;10.092;2022-08-11T13:00:24;2.20;;;1.35;;
12956;SDS011;6543;48.836;10.092;2022-08-11T13:03:10;3.42;;;1.30;;
12956;SDS011;6543;48.836;10.092;2022-08-11T13:05:56;2.83;;;1.55;;
12956;SDS011;6543;48.836;10.092;2022-08-11T13:08:26;1.27;;;1.13;;
12956;SDS011;6543;48.836;10.092;2022-08-11T13:10:56;4.30;;;1.42;;
12956;SDS011;6543;48.836;10.092;2022-08-11T13:13:44;4.32;;;1.38;;
12956;SDS011;6543;48.836;10.092;2022-08-11T13:16:13;1.00;;;0.95;;
12956;SDS011;6543;48.836;10.092;2022-08-11T13:18:40;2.67;;;1.50;;
12956;SDS011;6543;48.836;10.092;2022-08-11T13:21:09;3.67;;;1.52;;
12956;SDS011;6543;48.836;10.092;2022-08-11T13:23:37;4.93;;;1.38;;
12956;SDS011;6543;48.836;10.092;2022-08-11T13:26:05;4.07;;;1.83;;
12956;SDS011;6543;48.836;10.092;2022-08-11T13:28:33;4.53;;;1.70;;
12956;SDS011;6543;48.836;10.092;2022-08-11T13:31:02;4.97;;;1.50;;
12956;SDS011;6543;48.836;10.092;2022-08-11T13:33:40;1.75;;;1.50;;
12956;SDS011;6543;48.836;10.092;2022-08-11T13:36:09;4.68;;;1.60;;
12956;SDS011;6543;48.836;10.092;2022-08-11T13:38:37;5.78;;;1.50;;
12956;SDS011;6543;48.836;10.092;2022-08-11T13:41:07;1.75;;;1.58;;
12956;SDS011;6543;48.836;10.092;2022-08-11T13:43:48;3.80;;;1.20;;
12956;SDS011;6543;48.836;10.092;2022-08-11T13:46:17;3.28;;;1.23;;
12956;SDS011;6543;48.836;10.092;2022-08-11T13:48:46;4.65;;;1.65;;
12956;SDS011;6543;48.836;10.092;2022-08-11T13:51:14;3.55;;;1.40;;
12956;SDS011;6543;48.836;10.092;2022-08-11T13:53:58;3.40;;;1.30;;
12956;SDS011;6543;48.836;10.092;2022-08-11T13:56:27;2.25;;;1.55;;
12956;SDS011;6543;48.836;10.092;2022-08-11T13:58:55;2.95;;;1.50;;
12956;SDS011;6543;48.836;10.092;2022-08-11T14:01:25;1.95;;;1.50;;
12956;SDS011;6543;48.836;10.092;2022-08-11T14:03:54;4.35;;;1.38;;
12956;SDS011;6543;48.836;10.092;2022-08-11T14:06:28;3.17;;;1.42;;
12956;SDS011;6543;48.836;10.092;2022-08-11T14:08:56;5.85;;;1.80;;
12956;SDS011;6543;48.836;10.092;2022-08-11T14:11:24;2.33;;;1.50;;
12956;SDS011;6543;48.836;10.092;2022-08-11T14:14:12;2.25;;;1.20;;
12956;SDS011;6543;48.836;10.092;2022-08-11T14:16:45;4.95;;;1.50;;
12956;SDS011;6543;48.836;10.092;2022-08-11T14:19:15;5.10;;;1.50;;
12956;SDS011;6543;48.836;10.092;2022-08-11T14:21:45;5.15;;;1.58;;
12956;SDS011;6543;48.836;10.092;2022-08-11T14:24:33;2.95;;;1.63;;
12956;SDS011;6543;48.836;10.092;2022-08-11T14:27:02;5.25;;;1.60;;
12956;SDS011;6543;48.836;10.092;2022-08-11T14:29:30;3.10;;;1.95;;
12956;SDS011;6543;48.836;10.092;2022-08-11T14:32:04;1.92;;;1.20;;
12956;SDS011;6543;48.836;10.092;2022-08-11T14:34:34;2.58;;;1.48;;
12956;SDS011;6543;48.836;10.092;2022-08-11T14:37:06;1.83;;;1.60;;
12956;SDS011;6543;48.836;10.092;2022-08-11T14:39:37;3.25;;;1.42;;
12956;SDS011;6543;48.836;10.092;2022-08-11T14:42:07;1.30;;;1.23;;
12956;SDS011;6543;48.836;10.092;2022-08-11T14:44:55;2.45;;;1.40;;
12956;SDS011;6543;48.836;10.092;2022-08-11T14:47:42;4.35;;;1.60;;
12956;SDS011;6543;48.836;10.092;2022-08-11T14:50:13;6.22;;;1.42;;
12956;SDS011;6543;48.836;10.092;2022-08-11T14:52:44;12.23;;;1.80;;
12956;SDS011;6543;48.836;10.092;2022-08-11T14:55:14;2.80;;;1.30;;
12956;SDS011;6543;48.836;10.092;2022-08-11T14:58:00;1.52;;;1.42;;
12956;SDS011;6543;48.836;10.092;2022-08-11T15:00:27;4.70;;;1.75;;
12956;SDS011;6543;48.836;10.092;2022-08-11T15:02:56;1.73;;;1.40;;
12956;SDS011;6543;48.836;10.092;2022-08-11T15:05:36;4.35;;;1.40;;
12956;SDS011;6543;48.836;10.092;2022-08-11T15:08:12;1.85;;;1.25;;
12956;SDS011;6543;48.836;10.092;2022-08-11T15:10:40;3.83;;;1.30;;
12956;SDS011;6543;48.836;10.092;2022-08-11T15:13:07;6.18;;;1.52;;
12956;SDS011;6543;48.836;10.092;2022-08-11T15:15:35;1.30;;;1.20;;
12956;SDS011;6543;48.836;10.092;2022-08-11T15:18:23;4.00;;;1.27;;
12956;SDS011;6543;48.836;10.092;2022-08-11T15:20:51;1.40;;;1.27;;
12956;SDS011;6543;48.836;10.092;2022-08-11T15:23:37;5.10;;;1.40;;
12956;SDS011;6543;48.836;10.092;2022-08-11T15:26:24;1.80;;;1.23;;
12956;SDS011;6543;48.836;10.092;2022-08-11T15:29:09;2.35;;;1.50;;
12956;SDS011;6543;48.836;10.092;2022-08-11T15:31:57;4.15;;;1.27;;
12956;SDS011;6543;48.836;10.092;2022-08-11T15:34:44;7.28;;;2.00;;
12956;SDS011;6543;48.836;10.092;2022-08-11T15:37:33;5.03;;;1.38;;
12956;SDS011;6543;48.836;10.092;2022-08-11T15:40:04;3.30;;;1.52;;
12956;SDS011;6543;48.836;10.092;2022-08-11T15:42:56;8.10;;;1.40;;
12956;SDS011;6543;48.836;10.092;2022-08-11T15:45:43;2.25;;;1.50;;
12956;SDS011;6543;48.836;10.092;2022-08-11T15:48:16;4.82;;;1.42;;
12956;SDS011;6543;48.836;10.092;2022-08-11T15:50:56;5.15;;;1.73;;
12956;SDS011;6543;48.836;10.092;2022-08-11T15:53:33;6.93;;;1.48;;
12956;SDS011;6543;48.836;10.092;2022-08-11T15:56:06;4.85;;;1.63;;
12956;SDS011;6543;48.836;10.092;2022-08-11T15:58:37;5.57;;;2.00;;
12956;SDS011;6543;48.836;10.092;2022-08-11T16:01:25;2.55;;;1.60;;
12956;SDS011;6543;48.836;10.092;2022-08-11T16:04:13;1.55;;;1.13;;
12956;SDS011;6543;48.836;10.092;2022-08-11T16:06:50;4.88;;;1.65;;
12956;SDS011;6543;48.836;10.092;2022-08-11T16:09:21;2.95;;;1.45;;
12956;SDS011;6543;48.836;10.092;2022-08-11T16:11:51;3.25;;;1.60;;
12956;SDS011;6543;48.836;10.092;2022-08-11T16:14:21;5.68;;;1.52;;
12956;SDS011;6543;48.836;10.092;2022-08-11T16:17:07;1.90;;;1.48;;
12956;SDS011;6543;48.836;10.092;2022-08-11T16:19:37;2.85;;;1.20;;
12956;SDS011;6543;48.836;10.092;2022-08-11T16:22:09;3.72;;;1.27;;
12956;SDS011;6543;48.836;10.092;2022-08-11T16:24:40;6.10;;;1.30;;
12956;SDS011;6543;48.836;10.092;2022-08-11T16:27:10;1.35;;;1.25;;
12956;SDS011;6543;48.836;10.092;2022-08-11T16:29:40;5.25;;;1.58;;
12956;SDS011;6543;48.836;10.092;2022-08-11T16:32:11;4.28;;;2.92;;
12956;SDS011;6543;48.836;10.092;2022-08-11T16:34:44;3.33;;;1.50;;
12956;SDS011;6543;48.836;10.092;2022-08-11T16:37:33;5.28;;;1.30;;
12956;SDS011;6543;48.836;10.092;2022-08-11T16:40:20;3.83;;;1.27;;
12956;SDS011;6543;48.836;10.092;2022-08-11T16:42:48;4.15;;;1.38;;
12956;SDS011;6543;48.836;10.092;2022-08-11T16:45:33;4.90;;;1.60;;
12956;SDS011;6543;48.836;10.092;2022-08-11T16:48:20;11.10;;;2.10;;
12956;SDS011;6543;48.836;10.092;2022-08-11T16:50:49;2.78;;;1.55;;
12956;SDS011;6543;48.836;10.092;2022-08-11T16:53:17;1.85;;;1.48;;